sensor_id;sensor_type;location;lat;lon;timestamp;pressure;altitude;pressure_sealevel;temperature;humidity
19236;BME280;9752;54.270;12.470;2023-01-26T00:04:08;102627.94;;;-1.96;100.00
19236;BME280;9752;54.270;12.470;2023-01-26T00:09:12;102628.59;;;-1.91;100.00
19236;BME280;9752;54.270;12.470;2023-01-26T00:14:15;102626.28;;;-1.89;100.00
19236;BME280;9752;54.270;12.470;2023-01-26T00:19:18;102618.34;;;-2.04;100.00
19236;BME280;9752;54.270;12.470;2023-01-26T00:24:20;102613.25;;;-2.04;100.00
19236;BME280;9752;54.270;12.470;2023-01-26T00:29:22;102613.09;;;-2.11;100.00
19236;BME280;9752;54.270;12.470;2023-01-26T00:34:25;102612.28;;;-1.99;100.00
19236;BME280;9752;54.270;12.470;2023-01-26T00:39:27;102615.03;;;-1.97;100.00
19236;BME280;9752;54.270;12.470;2023-01-26T00:44:28;102601.59;;;-1.96;100.00
19236;BME280;9752;54.270;12.470;2023-01-26T00:49:32;102603.38;;;-1.89;100.00
19236;BME280;9752;54.270;12.470;2023-01-26T00:54:33;102610.38;;;-1.94;100.00
19236;BME280;9752;54.270;12.470;2023-01-26T00:59:35;102592.00;;;-2.04;100.00
19236;BME280;9752;54.270;12.470;2023-01-26T01:04:38;102600.81;;;-2.08;100.00
19236;BME280;9752;54.270;12.470;2023-01-26T01:09:40;102600.53;;;-2.04;100.00
19236;BME280;9752;54.270;12.470;2023-01-26T01:14:42;102598.91;;;-2.03;100.00
19236;BME280;9752;54.270;12.470;2023-01-26T01:19:45;102599.13;;;-2.02;100.00
19236;BME280;9752;54.270;12.470;2023-01-26T01:24:47;102589.88;;;-2.01;100.00
19236;BME280;9752;54.270;12.470;2023-01-26T01:29:49;102587.84;;;-2.04;100.00
19236;BME280;9752;54.270;12.470;2023-01-26T01:34:52;102592.22;;;-2.03;100.00
19236;BME280;9752;54.270;12.470;2023-01-26T01:39:55;102581.69;;;-2.11;100.00
19236;BME280;9752;54.270;12.470;2023-01-26T01:45:27;102598.22;;;-2.02;100.00
19236;BME280;9752;54.270;12.470;2023-01-26T01:50:36;102603.19;;;-1.91;100.00
19236;BME280;9752;54.270;12.470;2023-01-26T01:55:40;102598.22;;;-1.84;100.00
19236;BME280;9752;54.270;12.470;2023-01-26T02:00:42;102599.38;;;-1.82;100.00
19236;BME280;9752;54.270;12.470;2023-01-26T02:05:53;102592.44;;;-1.83;100.00
19236;BME280;9752;54.270;12.470;2023-01-26T02:10:58;102586.44;;;-1.83;100.00
19236;BME280;9752;54.270;12.470;2023-01-26T02:16:03;102574.16;;;-1.80;100.00
19236;BME280;9752;54.270;12.470;2023-01-26T02:21:08;102565.09;;;-1.78;100.00
19236;BME280;9752;54.270;12.470;2023-01-26T02:26:14;102559.06;;;-1.79;100.00
19236;BME280;9752;54.270;12.470;2023-01-26T02:31:17;102553.06;;;-1.79;100.00
19236;BME280;9752;54.270;12.470;2023-01-26T02:36:23;102543.63;;;-1.80;100.00
19236;BME280;9752;54.270;12.470;2023-01-26T02:41:26;102539.44;;;-1.80;100.00
19236;BME280;9752;54.270;12.470;2023-01-26T02:46:45;102534.44;;;-1.85;100.00
19236;BME280;9752;54.270;12.470;2023-01-26T02:51:50;102543.81;;;-1.79;100.00
19236;BME280;9752;54.270;12.470;2023-01-26T02:56:53;102547.00;;;-1.74;100.00
19236;BME280;9752;54.270;12.470;2023-01-26T03:01:56;102530.81;;;-1.74;100.00
19236;BME280;9752;54.270;12.470;2023-01-26T03:06:58;102531.75;;;-1.74;100.00
19236;BME280;9752;54.270;12.470;2023-01-26T03:12:02;102544.78;;;-1.65;100.00
19236;BME280;9752;54.270;12.470;2023-01-26T03:17:04;102549.53;;;-1.55;100.00
19236;BME280;9752;54.270;12.470;2023-01-26T03:22:08;102547.38;;;-1.52;100.00
19236;BME280;9752;54.270;12.470;2023-01-26T03:27:32;102541.88;;;-1.55;100.00
19236;BME280;9752;54.270;12.470;2023-01-26T03:32:36;102530.28;;;-1.53;100.00
19236;BME280;9752;54.270;12.470;2023-01-26T03:37:42;102523.88;;;-1.57;100.00
19236;BME280;9752;54.270;12.470;2023-01-26T03:42:58;102523.31;;;-1.67;100.00
19236;BME280;9752;54.270;12.470;2023-01-26T03:48:17;102527.25;;;-1.69;100.00
19236;BME280;9752;54.270;12.470;2023-01-26T03:53:39;102523.50;;;-1.66;100.00
19236;BME280;9752;54.270;12.470;2023-01-26T03:59:00;102528.22;;;-1.56;100.00
19236;BME280;9752;54.270;12.470;2023-01-26T04:04:07;102527.63;;;-1.61;100.00
19236;BME280;9752;54.270;12.470;2023-01-26T04:09:30;102528.00;;;-1.58;100.00
19236;BME280;9752;54.270;12.470;2023-01-26T04:14:33;102525.59;;;-1.50;100.00
19236;BME280;9752;54.270;12.470;2023-01-26T04:19:57;102534.47;;;-1.41;100.00
19236;BME280;9752;54.270;12.470;2023-01-26T04:25:19;102527.44;;;-1.49;100.00
19236;BME280;9752;54.270;12.470;2023-01-26T04:30:23;102517.28;;;-1.49;100.00
19236;BME280;9752;54.270;12.470;2023-01-26T04:35:25;102524.19;;;-1.48;100.00
19236;BME280;9752;54.270;12.470;2023-01-26T04:40:28;102522.88;;;-1.39;100.00
19236;BME280;9752;54.270;12.470;2023-01-26T04:45:31;102512.91;;;-1.38;100.00
19236;BME280;9752;54.270;12.470;2023-01-26T04:50:33;102500.41;;;-1.36;100.00
19236;BME280;9752;54.270;12.470;2023-01-26T04:55:35;102518.59;;;-1.33;100.00
19236;BME280;9752;54.270;12.470;2023-01-26T05:00:39;102526.16;;;-1.27;100.00
19236;BME280;9752;54.270;12.470;2023-01-26T05:05:41;102516.59;;;-1.23;100.00
19236;BME280;9752;54.270;12.470;2023-01-26T05:10:43;102517.31;;;-1.24;100.00
19236;BME280;9752;54.270;12.470;2023-01-26T05:16:00;102516.50;;;-1.30;100.00
19236;BME280;9752;54.270;12.470;2023-01-26T05:21:25;102510.06;;;-1.33;100.00
19236;BME280;9752;54.270;12.470;2023-01-26T05:26:28;102524.31;;;-1.41;100.00
19236;BME280;9752;54.270;12.470;2023-01-26T05:31:35;102517.91;;;-1.32;100.00
19236;BME280;9752;54.270;12.470;2023-01-26T05:36:37;102512.00;;;-1.38;100.00
19236;BME280;9752;54.270;12.470;2023-01-26T05:41:39;102519.13;;;-1.35;100.00
19236;BME280;9752;54.270;12.470;2023-01-26T05:47:01;102522.91;;;-1.26;100.00
19236;BME280;9752;54.270;12.470;2023-01-26T05:52:07;102524.72;;;-1.25;100.00
19236;BME280;9752;54.270;12.470;2023-01-26T05:57:09;102525.25;;;-1.28;100.00
19236;BME280;9752;54.270;12.470;2023-01-26T06:02:17;102520.59;;;-1.25;100.00
19236;BME280;9752;54.270;12.470;2023-01-26T06:07:19;102523.34;;;-1.23;100.00
19236;BME280;9752;54.270;12.470;2023-01-26T06:12:30;102530.03;;;-1.24;100.00
19236;BME280;9752;54.270;12.470;2023-01-26T06:17:42;102541.34;;;-1.22;100.00
19236;BME280;9752;54.270;12.470;2023-01-26T06:22:47;102541.06;;;-1.17;100.00
19236;BME280;9752;54.270;12.470;2023-01-26T06:27:49;102542.69;;;-1.18;100.00
19236;BME280;9752;54.270;12.470;2023-01-26T06:33:00;102553.50;;;-1.13;100.00
19236;BME280;9752;54.270;12.470;2023-01-26T06:38:03;102550.94;;;-1.13;100.00
19236;BME280;9752;54.270;12.470;2023-01-26T06:43:06;102549.09;;;-1.14;100.00
19236;BME280;9752;54.270;12.470;2023-01-26T06:48:09;102560.84;;;-1.09;100.00
19236;BME280;9752;54.270;12.470;2023-01-26T06:53:36;102557.28;;;-1.04;100.00
19236;BME280;9752;54.270;12.470;2023-01-26T06:58:58;102558.97;;;-1.10;100.00
19236;BME280;9752;54.270;12.470;2023-01-26T07:04:14;102553.72;;;-1.12;100.00
19236;BME280;9752;54.270;12.470;2023-01-26T07:09:16;102558.69;;;-1.19;100.00
19236;BME280;9752;54.270;12.470;2023-01-26T07:14:17;102559.69;;;-1.24;100.00
19236;BME280;9752;54.270;12.470;2023-01-26T07:19:20;102564.69;;;-1.19;100.00
19236;BME280;9752;54.270;12.470;2023-01-26T07:24:22;102564.81;;;-1.11;100.00
19236;BME280;9752;54.270;12.470;2023-01-26T07:29:24;102544.81;;;-1.08;100.00
19236;BME280;9752;54.270;12.470;2023-01-26T07:34:27;102555.00;;;-1.08;100.00
19236;BME280;9752;54.270;12.470;2023-01-26T07:39:29;102547.78;;;-1.05;100.00
19236;BME280;9752;54.270;12.470;2023-01-26T07:44:30;102552.28;;;-0.97;100.00
19236;BME280;9752;54.270;12.470;2023-01-26T07:49:33;102544.75;;;-0.90;100.00
19236;BME280;9752;54.270;12.470;2023-01-26T07:54:35;102547.09;;;-0.79;100.00
19236;BME280;9752;54.270;12.470;2023-01-26T07:59:37;102564.63;;;-0.74;100.00
19236;BME280;9752;54.270;12.470;2023-01-26T08:04:40;102564.63;;;-0.74;100.00
19236;BME280;9752;54.270;12.470;2023-01-26T08:09:42;102565.53;;;-0.61;100.00
19236;BME280;9752;54.270;12.470;2023-01-26T08:14:44;102568.94;;;-0.55;100.00
19236;BME280;9752;54.270;12.470;2023-01-26T08:19:47;102578.22;;;-0.68;100.00
19236;BME280;9752;54.270;12.470;2023-01-26T08:24:49;102562.78;;;-0.63;100.00
19236;BME280;9752;54.270;12.470;2023-01-26T08:29:51;102568.41;;;-0.65;100.00
19236;BME280;9752;54.270;12.470;2023-01-26T08:34:54;102571.47;;;-0.81;100.00
19236;BME280;9752;54.270;12.470;2023-01-26T08:39:55;102572.81;;;-0.64;100.00
19236;BME280;9752;54.270;12.470;2023-01-26T08:44:57;102561.06;;;-0.69;100.00
19236;BME280;9752;54.270;12.470;2023-01-26T08:50:00;102568.09;;;-0.61;100.00
19236;BME280;9752;54.270;12.470;2023-01-26T08:55:02;102556.09;;;-0.62;100.00
19236;BME280;9752;54.270;12.470;2023-01-26T09:00:05;102564.31;;;-0.45;100.00
19236;BME280;9752;54.270;12.470;2023-01-26T09:05:09;102562.88;;;-0.30;100.00
19236;BME280;9752;54.270;12.470;2023-01-26T09:10:10;102565.69;;;-0.08;100.00
19236;BME280;9752;54.270;12.470;2023-01-26T09:15:12;102580.25;;;0.06;100.00
19236;BME280;9752;54.270;12.470;2023-01-26T09:20:16;102568.22;;;0.05;100.00
19236;BME280;9752;54.270;12.470;2023-01-26T09:25:18;102570.63;;;0.23;100.00
19236;BME280;9752;54.270;12.470;2023-01-26T09:30:20;102571.03;;;0.46;100.00
19236;BME280;9752;54.270;12.470;2023-01-26T09:35:25;102566.59;;;0.58;100.00
19236;BME280;9752;54.270;12.470;2023-01-26T09:40:35;102557.47;;;0.60;100.00
19236;BME280;9752;54.270;12.470;2023-01-26T09:45:44;102545.88;;;0.69;100.00
19236;BME280;9752;54.270;12.470;2023-01-26T09:50:54;102540.78;;;0.69;100.00
19236;BME280;9752;54.270;12.470;2023-01-26T09:55:58;102532.69;;;0.59;100.00
19236;BME280;9752;54.270;12.470;2023-01-26T10:01:01;102531.56;;;0.57;100.00
19236;BME280;9752;54.270;12.470;2023-01-26T10:06:11;102510.81;;;0.61;100.00
19236;BME280;9752;54.270;12.470;2023-01-26T10:11:43;102520.34;;;0.69;100.00
19236;BME280;9752;54.270;12.470;2023-01-26T10:16:48;102508.41;;;0.83;100.00
19236;BME280;9752;54.270;12.470;2023-01-26T10:21:55;102505.50;;;0.87;100.00
19236;BME280;9752;54.270;12.470;2023-01-26T10:26:59;102504.91;;;0.55;100.00
19236;BME280;9752;54.270;12.470;2023-01-26T10:32:01;102499.25;;;0.77;100.00
19236;BME280;9752;54.270;12.470;2023-01-26T10:37:18;102497.00;;;0.46;100.00
19236;BME280;9752;54.270;12.470;2023-01-26T10:42:19;102483.63;;;0.62;100.00
19236;BME280;9752;54.270;12.470;2023-01-26T10:47:21;102486.38;;;0.63;100.00
19236;BME280;9752;54.270;12.470;2023-01-26T10:52:25;102472.66;;;0.55;100.00
19236;BME280;9752;54.270;12.470;2023-01-26T10:57:28;102468.38;;;0.69;100.00
19236;BME280;9752;54.270;12.470;2023-01-26T11:02:33;102471.25;;;0.65;100.00
19236;BME280;9752;54.270;12.470;2023-01-26T11:07:38;102458.44;;;0.57;100.00
19236;BME280;9752;54.270;12.470;2023-01-26T11:12:40;102455.81;;;0.70;100.00
19236;BME280;9752;54.270;12.470;2023-01-26T11:17:48;102464.69;;;0.94;100.00
19236;BME280;9752;54.270;12.470;2023-01-26T11:22:58;102461.84;;;1.05;100.00
19236;BME280;9752;54.270;12.470;2023-01-26T11:28:17;102448.31;;;0.99;100.00
19236;BME280;9752;54.270;12.470;2023-01-26T11:33:28;102445.28;;;0.54;100.00
19236;BME280;9752;54.270;12.470;2023-01-26T11:38:35;102447.47;;;0.58;100.00
19236;BME280;9752;54.270;12.470;2023-01-26T11:43:50;102439.50;;;0.90;100.00
19236;BME280;9752;54.270;12.470;2023-01-26T11:49:02;102439.19;;;1.01;100.00
19236;BME280;9752;54.270;12.470;2023-01-26T11:54:20;102441.06;;;1.09;100.00
19236;BME280;9752;54.270;12.470;2023-01-26T11:59:27;102444.16;;;1.07;100.00
19236;BME280;9752;54.270;12.470;2023-01-26T12:04:34;102432.41;;;0.94;100.00
19236;BME280;9752;54.270;12.470;2023-01-26T12:09:47;102424.88;;;0.89;100.00
19236;BME280;9752;54.270;12.470;2023-01-26T12:14:51;102421.63;;;1.31;100.00
19236;BME280;9752;54.270;12.470;2023-01-26T12:19:59;102420.81;;;1.60;100.00
19236;BME280;9752;54.270;12.470;2023-01-26T12:25:18;102417.50;;;1.61;100.00
19236;BME280;9752;54.270;12.470;2023-01-26T12:30:33;102412.03;;;1.58;100.00
19236;BME280;9752;54.270;12.470;2023-01-26T12:35:53;102410.88;;;1.41;100.00
19236;BME280;9752;54.270;12.470;2023-01-26T12:41:04;102398.69;;;1.53;100.00
19236;BME280;9752;54.270;12.470;2023-01-26T12:46:11;102402.47;;;1.42;100.00
19236;BME280;9752;54.270;12.470;2023-01-26T12:51:18;102400.28;;;1.38;100.00
19236;BME280;9752;54.270;12.470;2023-01-26T12:56:25;102392.31;;;1.56;100.00
19236;BME280;9752;54.270;12.470;2023-01-26T13:01:37;102399.97;;;1.56;100.00
19236;BME280;9752;54.270;12.470;2023-01-26T13:06:40;102399.50;;;1.25;100.00
19236;BME280;9752;54.270;12.470;2023-01-26T13:11:45;102396.34;;;1.62;100.00
19236;BME280;9752;54.270;12.470;2023-01-26T13:16:47;102409.91;;;1.89;100.00
19236;BME280;9752;54.270;12.470;2023-01-26T13:21:49;102406.28;;;2.09;100.00
19236;BME280;9752;54.270;12.470;2023-01-26T13:26:53;102404.78;;;1.82;100.00
19236;BME280;9752;54.270;12.470;2023-01-26T13:31:57;102417.56;;;1.89;100.00
19236;BME280;9752;54.270;12.470;2023-01-26T13:37:04;102427.38;;;1.65;100.00
19236;BME280;9752;54.270;12.470;2023-01-26T13:42:19;102433.97;;;1.63;100.00
19236;BME280;9752;54.270;12.470;2023-01-26T13:47:27;102442.91;;;1.66;100.00
19236;BME280;9752;54.270;12.470;2023-01-26T13:52:31;102444.22;;;1.70;100.00
19236;BME280;9752;54.270;12.470;2023-01-26T13:57:34;102456.28;;;1.78;100.00
19236;BME280;9752;54.270;12.470;2023-01-26T14:02:36;102477.09;;;1.74;100.00
19236;BME280;9752;54.270;12.470;2023-01-26T14:07:40;102488.78;;;1.58;100.00
19236;BME280;9752;54.270;12.470;2023-01-26T14:12:45;102485.22;;;1.50;100.00
19236;BME280;9752;54.270;12.470;2023-01-26T14:17:50;102494.47;;;1.69;100.00
19236;BME280;9752;54.270;12.470;2023-01-26T14:23:10;102493.34;;;1.60;100.00
19236;BME280;9752;54.270;12.470;2023-01-26T14:28:16;102494.06;;;1.66;100.00
19236;BME280;9752;54.270;12.470;2023-01-26T14:33:22;102488.81;;;1.72;100.00
19236;BME280;9752;54.270;12.470;2023-01-26T14:38:26;102501.31;;;1.98;100.00
19236;BME280;9752;54.270;12.470;2023-01-26T14:43:30;102501.88;;;2.02;100.00
19236;BME280;9752;54.270;12.470;2023-01-26T14:48:36;102498.22;;;2.00;100.00
19236;BME280;9752;54.270;12.470;2023-01-26T14:53:40;102503.13;;;1.99;100.00
19236;BME280;9752;54.270;12.470;2023-01-26T14:58:51;102497.66;;;1.95;100.00
19236;BME280;9752;54.270;12.470;2023-01-26T15:04:00;102508.44;;;2.00;100.00
19236;BME280;9752;54.270;12.470;2023-01-26T15:09:04;102521.44;;;2.02;100.00
19236;BME280;9752;54.270;12.470;2023-01-26T15:14:30;102518.50;;;2.06;100.00
19236;BME280;9752;54.270;12.470;2023-01-26T15:19:39;102517.38;;;1.97;100.00
19236;BME280;9752;54.270;12.470;2023-01-26T15:24:41;102530.75;;;2.01;100.00
19236;BME280;9752;54.270;12.470;2023-01-26T15:29:45;102525.81;;;2.03;100.00
19236;BME280;9752;54.270;12.470;2023-01-26T15:34:47;102518.47;;;1.91;100.00
19236;BME280;9752;54.270;12.470;2023-01-26T15:39:49;102528.34;;;1.88;100.00
19236;BME280;9752;54.270;12.470;2023-01-26T15:44:52;102533.66;;;1.90;100.00
19236;BME280;9752;54.270;12.470;2023-01-26T15:49:54;102534.91;;;1.93;100.00
19236;BME280;9752;54.270;12.470;2023-01-26T15:54:56;102543.41;;;2.21;100.00
19236;BME280;9752;54.270;12.470;2023-01-26T15:59:59;102552.06;;;2.43;100.00
19236;BME280;9752;54.270;12.470;2023-01-26T16:05:01;102558.28;;;2.52;100.00
19236;BME280;9752;54.270;12.470;2023-01-26T16:10:03;102572.34;;;2.56;100.00
19236;BME280;9752;54.270;12.470;2023-01-26T16:15:21;102569.47;;;2.60;100.00
19236;BME280;9752;54.270;12.470;2023-01-26T16:20:27;102581.34;;;2.60;100.00
19236;BME280;9752;54.270;12.470;2023-01-26T16:25:30;102574.19;;;2.57;100.00
19236;BME280;9752;54.270;12.470;2023-01-26T16:30:34;102581.16;;;2.51;100.00
19236;BME280;9752;54.270;12.470;2023-01-26T16:35:36;102580.06;;;2.49;100.00
19236;BME280;9752;54.270;12.470;2023-01-26T16:40:38;102590.66;;;2.52;100.00
19236;BME280;9752;54.270;12.470;2023-01-26T16:45:42;102588.28;;;2.53;100.00
19236;BME280;9752;54.270;12.470;2023-01-26T16:50:44;102592.50;;;2.53;100.00
19236;BME280;9752;54.270;12.470;2023-01-26T16:55:46;102601.84;;;2.52;100.00
19236;BME280;9752;54.270;12.470;2023-01-26T17:00:49;102597.97;;;2.56;100.00
19236;BME280;9752;54.270;12.470;2023-01-26T17:05:50;102602.75;;;2.60;100.00
19236;BME280;9752;54.270;12.470;2023-01-26T17:10:52;102600.56;;;2.63;100.00
19236;BME280;9752;54.270;12.470;2023-01-26T17:15:56;102601.50;;;2.64;100.00
19236;BME280;9752;54.270;12.470;2023-01-26T17:21:01;102611.56;;;2.69;100.00
19236;BME280;9752;54.270;12.470;2023-01-26T17:26:03;102621.78;;;2.77;100.00
19236;BME280;9752;54.270;12.470;2023-01-26T17:31:11;102629.13;;;2.81;100.00
19236;BME280;9752;54.270;12.470;2023-01-26T17:36:13;102637.56;;;2.87;100.00
19236;BME280;9752;54.270;12.470;2023-01-26T17:41:16;102639.38;;;2.88;100.00
19236;BME280;9752;54.270;12.470;2023-01-26T17:46:20;102640.13;;;2.87;100.00
19236;BME280;9752;54.270;12.470;2023-01-26T17:51:21;102650.00;;;2.91;100.00
19236;BME280;9752;54.270;12.470;2023-01-26T17:56:23;102642.53;;;2.92;100.00
19236;BME280;9752;54.270;12.470;2023-01-26T18:01:27;102644.34;;;2.93;100.00
19236;BME280;9752;54.270;12.470;2023-01-26T18:06:28;102647.09;;;2.95;100.00
19236;BME280;9752;54.270;12.470;2023-01-26T18:11:30;102657.34;;;2.95;100.00
19236;BME280;9752;54.270;12.470;2023-01-26T18:16:33;102661.72;;;2.89;100.00
19236;BME280;9752;54.270;12.470;2023-01-26T18:21:35;102663.56;;;2.97;100.00
19236;BME280;9752;54.270;12.470;2023-01-26T18:26:37;102667.81;;;3.04;100.00
19236;BME280;9752;54.270;12.470;2023-01-26T18:31:40;102669.44;;;2.96;100.00
19236;BME280;9752;54.270;12.470;2023-01-26T18:36:42;102673.44;;;3.01;100.00
19236;BME280;9752;54.270;12.470;2023-01-26T18:41:44;102677.31;;;3.05;100.00
19236;BME280;9752;54.270;12.470;2023-01-26T18:46:47;102683.16;;;3.11;100.00
19236;BME280;9752;54.270;12.470;2023-01-26T18:51:49;102687.75;;;3.06;100.00
19236;BME280;9752;54.270;12.470;2023-01-26T18:56:51;102679.69;;;3.10;100.00
19236;BME280;9752;54.270;12.470;2023-01-26T19:01:54;102689.94;;;3.10;100.00
19236;BME280;9752;54.270;12.470;2023-01-26T19:06:56;102692.31;;;3.09;100.00
19236;BME280;9752;54.270;12.470;2023-01-26T19:11:58;102697.44;;;3.09;100.00
19236;BME280;9752;54.270;12.470;2023-01-26T19:17:03;102698.03;;;3.13;100.00
19236;BME280;9752;54.270;12.470;2023-01-26T19:22:04;102702.56;;;3.09;100.00
19236;BME280;9752;54.270;12.470;2023-01-26T19:27:06;102699.84;;;3.07;100.00
19236;BME280;9752;54.270;12.470;2023-01-26T19:32:09;102708.09;;;3.12;100.00
19236;BME280;9752;54.270;12.470;2023-01-26T19:37:11;102709.00;;;3.12;100.00
19236;BME280;9752;54.270;12.470;2023-01-26T19:42:12;102700.59;;;3.13;100.00
19236;BME280;9752;54.270;12.470;2023-01-26T19:47:16;102713.03;;;3.18;100.00
19236;BME280;9752;54.270;12.470;2023-01-26T19:52:17;102715.97;;;3.21;100.00
19236;BME280;9752;54.270;12.470;2023-01-26T19:57:19;102715.41;;;3.23;100.00
19236;BME280;9752;54.270;12.470;2023-01-26T20:02:23;102723.13;;;3.23;100.00
19236;BME280;9752;54.270;12.470;2023-01-26T20:07:25;102731.34;;;3.28;100.00
19236;BME280;9752;54.270;12.470;2023-01-26T20:12:28;102728.44;;;3.32;100.00
19236;BME280;9752;54.270;12.470;2023-01-26T20:17:31;102744.94;;;3.34;100.00
19236;BME280;9752;54.270;12.470;2023-01-26T20:22:34;102740.91;;;3.36;100.00
19236;BME280;9752;54.270;12.470;2023-01-26T20:27:39;102755.16;;;3.41;100.00
19236;BME280;9752;54.270;12.470;2023-01-26T20:32:42;102758.13;;;3.44;100.00
19236;BME280;9752;54.270;12.470;2023-01-26T20:37:44;102769.09;;;3.43;100.00
19236;BME280;9752;54.270;12.470;2023-01-26T20:42:46;102771.31;;;3.47;100.00
19236;BME280;9752;54.270;12.470;2023-01-26T20:47:50;102779.75;;;3.54;100.00
19236;BME280;9752;54.270;12.470;2023-01-26T20:52:52;102780.47;;;3.52;100.00
19236;BME280;9752;54.270;12.470;2023-01-26T20:57:54;102785.25;;;3.57;100.00
19236;BME280;9752;54.270;12.470;2023-01-26T21:02:57;102786.72;;;3.62;100.00
19236;BME280;9752;54.270;12.470;2023-01-26T21:07:59;102790.38;;;3.64;100.00
19236;BME280;9752;54.270;12.470;2023-01-26T21:13:00;102794.97;;;3.66;100.00
19236;BME280;9752;54.270;12.470;2023-01-26T21:18:04;102790.00;;;3.68;100.00
19236;BME280;9752;54.270;12.470;2023-01-26T21:23:05;102791.13;;;3.70;100.00
19236;BME280;9752;54.270;12.470;2023-01-26T21:28:07;102798.06;;;3.71;100.00
19236;BME280;9752;54.270;12.470;2023-01-26T21:33:11;102804.31;;;3.73;100.00
19236;BME280;9752;54.270;12.470;2023-01-26T21:38:13;102808.34;;;3.78;100.00
19236;BME280;9752;54.270;12.470;2023-01-26T21:43:14;102810.34;;;3.81;100.00
19236;BME280;9752;54.270;12.470;2023-01-26T21:48:17;102813.50;;;3.85;100.00
19236;BME280;9752;54.270;12.470;2023-01-26T21:53:31;102823.75;;;3.85;100.00
19236;BME280;9752;54.270;12.470;2023-01-26T21:58:32;102823.75;;;3.85;100.00
19236;BME280;9752;54.270;12.470;2023-01-26T22:03:55;102836.75;;;3.87;100.00
19236;BME280;9752;54.270;12.470;2023-01-26T22:08:56;102841.16;;;3.88;100.00
19236;BME280;9752;54.270;12.470;2023-01-26T22:13:58;102855.66;;;3.87;100.00
19236;BME280;9752;54.270;12.470;2023-01-26T22:19:01;102877.13;;;3.88;100.00
19236;BME280;9752;54.270;12.470;2023-01-26T22:24:04;102882.06;;;3.86;100.00
19236;BME280;9752;54.270;12.470;2023-01-26T22:29:06;102872.16;;;3.82;100.00
19236;BME280;9752;54.270;12.470;2023-01-26T22:34:09;102870.31;;;3.81;100.00
19236;BME280;9752;54.270;12.470;2023-01-26T22:39:11;102878.00;;;3.81;100.00
19236;BME280;9752;54.270;12.470;2023-01-26T22:44:13;102874.34;;;3.79;100.00
19236;BME280;9752;54.270;12.470;2023-01-26T22:49:16;102881.13;;;3.79;100.00
19236;BME280;9752;54.270;12.470;2023-01-26T22:54:18;102880.59;;;3.74;100.00
19236;BME280;9752;54.270;12.470;2023-01-26T22:59:20;102892.31;;;3.72;100.00
19236;BME280;9752;54.270;12.470;2023-01-26T23:04:23;102888.66;;;3.70;100.00
19236;BME280;9752;54.270;12.470;2023-01-26T23:09:24;102893.03;;;3.64;100.00
19236;BME280;9752;54.270;12.470;2023-01-26T23:14:33;102894.28;;;3.60;100.00
19236;BME280;9752;54.270;12.470;2023-01-26T23:19:36;102887.16;;;3.58;100.00
19236;BME280;9752;54.270;12.470;2023-01-26T23:24:38;102898.88;;;3.56;100.00
19236;BME280;9752;54.270;12.470;2023-01-26T23:29:39;102892.28;;;3.58;100.00
19236;BME280;9752;54.270;12.470;2023-01-26T23:34:42;102898.88;;;3.56;100.00
19236;BME280;9752;54.270;12.470;2023-01-26T23:39:44;102891.75;;;3.53;100.00
19236;BME280;9752;54.270;12.470;2023-01-26T23:44:46;102892.25;;;3.50;100.00
19236;BME280;9752;54.270;12.470;2023-01-26T23:49:49;102903.63;;;3.45;100.00
19236;BME280;9752;54.270;12.470;2023-01-26T23:54:50;102903.59;;;3.38;100.00
19236;BME280;9752;54.270;12.470;2023-01-26T23:59:53;102905.03;;;3.29;100.00
